Time;durP1;ratioP1;P1;durP2;ratioP2;P2;SDS_P1;SDS_P2;PMS_P1;PMS_P2;Temp;Humidity;BMP_temperature;BMP_pressure;BME280_temperature;BME280_humidity;BME280_pressure;Samples;Min_cycle;Max_cycle;Signal;HPM_P1;HPM_P2
2020/12/10 00:01:56;;;;;;;110.63;33.80;;;4.00;92.90;;;;;;5010219;28;20058;-67
2020/12/10 00:04:21;;;;;;;124.63;34.97;;;3.90;92.90;;;;;;5010456;28;20042;-67
2020/12/10 00:06:47;;;;;;;115.13;32.90;;;4.00;93.10;;;;;;5010769;28;20030;-68
2020/12/10 00:09:13;;;;;;;114.37;35.67;;;4.00;93.10;;;;;;5010319;28;20117;-68
2020/12/10 00:11:38;;;;;;;120.27;34.43;;;4.00;93.00;;;;;;5008907;28;20041;-68
2020/12/10 00:14:04;;;;;;;125.87;37.17;;;3.90;93.00;;;;;;5012933;28;20060;-68
2020/12/10 00:16:31;;;;;;;110.73;35.70;;;3.90;93.00;;;;;;5045759;28;20034;-68
2020/12/10 00:18:57;;;;;;;128.30;36.50;;;3.90;93.00;;;;;;5013146;28;20034;-67
2020/12/10 00:21:23;;;;;;;128.70;38.30;;;3.90;93.10;;;;;;5013905;28;20033;-67
2020/12/10 00:23:49;;;;;;;121.77;36.33;;;3.90;93.30;;;;;;4996101;28;20046;-67
2020/12/10 00:26:16;;;;;;;124.23;37.30;;;3.90;93.10;;;;;;5012823;28;20049;-67
2020/12/10 00:28:42;;;;;;;117.23;36.13;;;3.80;93.20;;;;;;5045494;28;20096;-67
2020/12/10 00:31:08;;;;;;;121.27;38.43;;;3.90;93.20;;;;;;5014162;28;20112;-68
2020/12/10 00:33:33;;;;;;;119.13;38.03;;;3.90;93.20;;;;;;5011805;28;20546;-67
2020/12/10 00:35:59;;;;;;;109.30;35.47;;;3.90;93.10;;;;;;5013888;28;20049;-67
2020/12/10 00:38:25;;;;;;;104.87;36.27;;;3.80;93.10;;;;;;5012829;28;20041;-67
2020/12/10 00:40:51;;;;;;;105.33;35.57;;;3.80;93.20;;;;;;5012369;28;20042;-67
2020/12/10 00:43:16;;;;;;;107.67;37.30;;;3.80;93.10;;;;;;5013446;28;20088;-67
2020/12/10 00:45:42;;;;;;;107.27;35.70;;;3.90;93.20;;;;;;5013310;28;20558;-67
2020/12/10 00:48:08;;;;;;;94.87;33.47;;;3.80;93.20;;;;;;5012440;28;20034;-67
2020/12/10 00:50:34;;;;;;;106.97;35.87;;;3.80;93.20;;;;;;5045581;28;20042;-68
2020/12/10 00:53:01;;;;;;;97.67;34.77;;;3.80;93.30;;;;;;5011624;28;20518;-67
2020/12/10 00:55:26;;;;;;;99.33;34.07;;;3.80;93.40;;;;;;4995926;28;20044;-68
2020/12/10 00:57:52;;;;;;;100.73;34.60;;;3.90;93.40;;;;;;5013234;28;20061;-68
2020/12/10 01:00:18;;;;;;;90.33;33.93;;;3.90;93.40;;;;;;5045234;28;20069;-68
2020/12/10 01:02:44;;;;;;;88.50;33.13;;;4.00;93.40;;;;;;5013075;28;20060;-68
2020/12/10 01:05:10;;;;;;;91.33;32.33;;;4.00;93.40;;;;;;5011834;28;20509;-67
2020/12/10 01:07:35;;;;;;;86.47;32.87;;;4.00;93.20;;;;;;5013617;28;20026;-67
2020/12/10 01:10:03;;;;;;;94.27;34.53;;;3.90;93.10;;;;;;5012998;28;20064;-68
2020/12/10 01:12:29;;;;;;;91.40;35.47;;;4.00;93.30;;;;;;5011594;28;20095;-68
2020/12/10 01:14:54;;;;;;;89.07;34.17;;;4.00;93.30;;;;;;5011607;28;20050;-67
2020/12/10 01:17:20;;;;;;;83.07;33.17;;;4.00;93.30;;;;;;5011769;28;20057;-67
2020/12/10 01:19:46;;;;;;;94.50;33.43;;;4.00;93.30;;;;;;5013296;28;20061;-67
2020/12/10 01:22:12;;;;;;;86.80;34.17;;;4.00;93.30;;;;;;5010943;28;20064;-67
2020/12/10 01:24:37;;;;;;;90.03;34.67;;;4.00;93.40;;;;;;4995315;28;20034;-68
2020/12/10 01:27:03;;;;;;;86.80;33.03;;;4.00;93.40;;;;;;5013063;28;20515;-67
2020/12/10 01:29:29;;;;;;;90.27;34.20;;;4.00;93.30;;;;;;5012526;28;20180;-68
2020/12/10 01:31:54;;;;;;;92.23;36.50;;;4.10;93.40;;;;;;5011148;28;20057;-69
2020/12/10 01:34:20;;;;;;;86.53;32.73;;;4.10;93.20;;;;;;5012835;28;20044;-68
2020/12/10 01:36:46;;;;;;;90.67;34.80;;;4.00;93.10;;;;;;5012957;28;20022;-76
2020/12/10 01:39:12;;;;;;;88.37;34.43;;;4.00;93.10;;;;;;5012919;28;20495;-76
2020/12/10 01:41:38;;;;;;;92.20;35.27;;;4.00;93.10;;;;;;5012038;28;20510;-76
2020/12/10 01:44:05;;;;;;;87.83;34.63;;;3.90;93.20;;;;;;5011427;28;20030;-76
2020/12/10 01:46:32;;;;;;;88.03;34.67;;;4.00;93.30;;;;;;5012601;28;20060;-76
2020/12/10 01:48:58;;;;;;;83.40;34.57;;;4.00;93.40;;;;;;5012277;28;20037;-76
2020/12/10 01:51:24;;;;;;;90.23;34.23;;;4.00;93.50;;;;;;5011326;28;20034;-76
2020/12/10 01:53:50;;;;;;;90.17;35.83;;;4.00;93.20;;;;;;5011637;28;20410;-75
2020/12/10 01:56:17;;;;;;;81.67;33.63;;;4.00;93.20;;;;;;5011126;28;20046;-76
2020/12/10 01:58:43;;;;;;;84.70;32.20;;;4.00;93.50;;;;;;5010767;28;20061;-74
2020/12/10 02:01:09;;;;;;;85.23;33.90;;;4.00;93.20;;;;;;5027894;28;20446;-76
2020/12/10 02:03:35;;;;;;;80.87;32.47;;;4.00;93.10;;;;;;5011924;28;20041;-76
2020/12/10 02:06:01;;;;;;;83.27;33.60;;;4.00;93.30;;;;;;5010652;28;20048;-76
2020/12/10 02:08:27;;;;;;;90.20;34.37;;;4.00;93.00;;;;;;5011112;28;20068;-76
2020/12/10 02:10:52;;;;;;;81.50;33.73;;;4.00;93.10;;;;;;5011836;28;20037;-75
2020/12/10 02:13:18;;;;;;;85.43;34.20;;;4.00;93.20;;;;;;5011574;28;20044;-76
2020/12/10 02:15:51;;;;;;;84.67;33.73;;;4.00;93.20;;;;;;5012098;28;20045;-76
2020/12/10 02:18:17;;;;;;;81.27;33.47;;;4.00;93.20;;;;;;5011844;28;20049;-76
2020/12/10 02:20:43;;;;;;;92.93;35.53;;;4.00;93.10;;;;;;4994527;28;20037;-75
2020/12/10 02:23:10;;;;;;;88.80;34.00;;;4.00;93.40;;;;;;5011158;28;20169;-75
2020/12/10 02:25:37;;;;;;;86.47;34.23;;;4.00;93.10;;;;;;5011967;28;20099;-76
2020/12/10 02:28:06;;;;;;;85.57;34.00;;;4.00;93.10;;;;;;5010769;28;20037;-76
2020/12/10 02:30:32;;;;;;;87.83;34.47;;;4.00;93.00;;;;;;5010633;28;20522;-76
2020/12/10 02:33:03;;;;;;;95.07;35.60;;;4.00;93.00;;;;;;5010194;28;20069;-76
2020/12/10 02:35:30;;;;;;;89.40;33.60;;;4.00;93.00;;;;;;5010587;28;20056;-76
2020/12/10 02:37:57;;;;;;;89.90;35.67;;;4.00;93.00;;;;;;5011916;28;20164;-76
2020/12/10 02:40:25;;;;;;;97.20;36.37;;;4.00;93.00;;;;;;5010022;28;20564;-75
2020/12/10 02:42:50;;;;;;;84.63;34.37;;;4.00;93.10;;;;;;5011079;28;20372;-75
2020/12/10 02:45:17;;;;;;;91.57;36.47;;;3.90;93.10;;;;;;5010455;28;20041;-76
2020/12/10 02:47:43;;;;;;;87.87;35.63;;;4.00;93.00;;;;;;5011214;28;20387;-76
2020/12/10 02:50:09;;;;;;;86.67;34.97;;;4.00;93.20;;;;;;5011626;28;20040;-76
2020/12/10 02:52:35;;;;;;;80.83;33.13;;;3.90;93.00;;;;;;5010677;28;20470;-76
2020/12/10 02:55:01;;;;;;;83.50;34.87;;;3.90;93.00;;;;;;5011188;28;20138;-76
2020/12/10 02:57:26;;;;;;;76.70;33.00;;;3.90;92.90;;;;;;5010360;28;20120;-76
2020/12/10 02:59:52;;;;;;;75.53;32.63;;;3.90;93.00;;;;;;5009867;28;20038;-75
2020/12/10 03:02:18;;;;;;;88.57;35.37;;;3.90;93.00;;;;;;5010980;28;20049;-76
2020/12/10 03:04:43;;;;;;;73.67;33.27;;;3.90;93.00;;;;;;5011007;28;20088;-76
2020/12/10 03:07:09;;;;;;;77.83;33.93;;;3.90;93.00;;;;;;5011268;28;20042;-76
2020/12/10 03:09:35;;;;;;;83.23;35.07;;;3.90;92.90;;;;;;5010076;28;20380;-76
2020/12/10 03:12:01;;;;;;;79.37;33.67;;;3.80;92.90;;;;;;5009001;28;20064;-76
2020/12/10 03:14:26;;;;;;;75.03;32.60;;;3.80;93.00;;;;;;5011150;28;20066;-76
2020/12/10 03:16:52;;;;;;;72.80;32.50;;;3.80;93.10;;;;;;5010876;28;20080;-75
2020/12/10 03:19:18;;;;;;;68.50;31.53;;;3.90;93.10;;;;;;5011236;28;20034;-76
2020/12/10 03:21:43;;;;;;;71.97;32.20;;;3.90;93.00;;;;;;5010684;28;20056;-76
2020/12/10 03:24:09;;;;;;;74.83;32.67;;;3.80;92.90;;;;;;5009392;28;20037;-75
2020/12/10 03:26:35;;;;;;;70.77;30.87;;;3.80;92.90;;;;;;5009898;28;20088;-76
2020/12/10 03:29:00;;;;;;;60.90;26.90;;;3.80;92.90;;;;;;5010663;28;20038;-75
2020/12/10 03:31:26;;;;;;;59.67;27.03;;;3.80;92.90;;;;;;5042855;28;20029;-76
2020/12/10 03:33:52;;;;;;;63.57;30.73;;;3.80;92.90;;;;;;5010675;28;20407;-75
2020/12/10 03:36:17;;;;;;;65.97;30.17;;;3.70;92.90;;;;;;5010468;28;20053;-76
2020/12/10 03:38:43;;;;;;;64.20;28.53;;;3.70;93.00;;;;;;5009684;28;20065;-76
2020/12/10 03:41:10;;;;;;;64.70;29.70;;;3.70;93.00;;;;;;5010609;28;20038;-72
2020/12/10 03:43:36;;;;;;;62.07;28.97;;;3.70;93.00;;;;;;5010460;28;20034;-76
2020/12/10 03:46:02;;;;;;;55.83;25.87;;;3.80;93.10;;;;;;5010916;28;20096;-76
2020/12/10 03:48:27;;;;;;;54.60;27.57;;;3.80;93.10;;;;;;5013909;28;20037;-76
2020/12/10 03:50:53;;;;;;;56.80;27.17;;;3.70;92.90;;;;;;5014816;28;20503;-76
2020/12/10 03:53:19;;;;;;;54.83;27.53;;;3.70;92.80;;;;;;5012439;28;20044;-75
2020/12/10 03:55:44;;;;;;;59.07;27.00;;;3.70;92.80;;;;;;5013484;28;20048;-75
2020/12/10 03:58:10;;;;;;;58.03;28.20;;;3.70;92.90;;;;;;5029871;28;20049;-75
2020/12/10 04:00:36;;;;;;;61.63;28.20;;;3.60;92.90;;;;;;5014384;28;20048;-75
2020/12/10 04:03:01;;;;;;;54.13;25.40;;;3.70;93.00;;;;;;5014119;28;20061;-76
2020/12/10 04:05:27;;;;;;;57.33;27.30;;;3.70;93.10;;;;;;5013211;28;20052;-76
2020/12/10 04:07:53;;;;;;;62.03;27.80;;;3.70;93.00;;;;;;5014024;28;20458;-76
2020/12/10 04:10:19;;;;;;;53.47;26.07;;;3.70;93.00;;;;;;5014655;28;20491;-76
2020/12/10 04:12:45;;;;;;;53.40;26.27;;;3.70;93.00;;;;;;5012275;28;20041;-76
2020/12/10 04:15:10;;;;;;;53.27;26.57;;;3.70;93.00;;;;;;5014118;28;20048;-76
2020/12/10 04:17:36;;;;;;;55.80;26.97;;;3.70;92.90;;;;;;5013159;28;20034;-76
2020/12/10 04:20:03;;;;;;;51.67;26.07;;;3.70;92.90;;;;;;5014064;28;20033;-76
2020/12/10 04:22:28;;;;;;;51.07;24.93;;;3.70;92.90;;;;;;5012509;28;20034;-76
2020/12/10 04:24:54;;;;;;;53.90;26.03;;;3.70;92.90;;;;;;5013872;28;20034;-76
2020/12/10 04:27:20;;;;;;;57.53;25.97;;;3.70;93.00;;;;;;5014395;28;20026;-76
2020/12/10 04:29:45;;;;;;;58.47;26.57;;;3.70;93.00;;;;;;5012976;28;20112;-76
2020/12/10 04:32:11;;;;;;;55.37;24.57;;;3.70;92.90;;;;;;5045001;28;20045;-75
2020/12/10 04:34:37;;;;;;;56.73;26.53;;;3.70;92.90;;;;;;5012801;28;20050;-76
2020/12/10 04:37:02;;;;;;;48.03;24.17;;;3.70;92.90;;;;;;5012363;28;20034;-75
2020/12/10 04:39:28;;;;;;;56.50;27.20;;;3.70;93.00;;;;;;5013969;28;20038;-75
2020/12/10 04:41:54;;;;;;;54.83;26.60;;;3.70;93.10;;;;;;5013424;28;20073;-76
2020/12/10 04:44:19;;;;;;;57.67;27.00;;;3.70;93.10;;;;;;4995938;28;20037;-76
2020/12/10 04:46:46;;;;;;;54.53;25.57;;;3.80;93.00;;;;;;5013935;28;20034;-76
2020/12/10 04:49:13;;;;;;;55.57;25.87;;;3.80;92.90;;;;;;5012173;28;20042;-76
2020/12/10 04:51:41;;;;;;;49.37;24.07;;;3.70;92.90;;;;;;5013472;28;20033;-76
2020/12/10 04:54:08;;;;;;;52.53;23.87;;;3.70;92.90;;;;;;5012490;28;20053;-76
2020/12/10 04:56:33;;;;;;;54.03;25.27;;;3.70;92.80;;;;;;5013249;28;20038;-76
2020/12/10 04:59:01;;;;;;;52.73;25.90;;;3.70;92.80;;;;;;5012807;28;20042;-76
2020/12/10 05:01:27;;;;;;;48.73;22.97;;;3.70;92.90;;;;;;5013314;28;20045;-76
2020/12/10 05:03:54;;;;;;;51.97;24.47;;;3.70;92.90;;;;;;5011763;28;20418;-76
2020/12/10 05:06:20;;;;;;;47.67;23.30;;;3.70;92.90;;;;;;5012614;28;20041;-76
2020/12/10 05:08:46;;;;;;;50.87;23.50;;;3.70;92.90;;;;;;5012305;28;20037;-75
2020/12/10 05:11:12;;;;;;;53.20;24.87;;;3.70;92.90;;;;;;5012825;28;20072;-76
2020/12/10 05:13:38;;;;;;;53.57;24.20;;;3.60;92.80;;;;;;5011770;28;20442;-76
2020/12/10 05:16:21;;;;;;;51.47;24.83;;;3.60;92.90;;;;;;5013393;28;20324;-75
2020/12/10 05:18:47;;;;;;;51.13;23.80;;;3.60;93.00;;;;;;4998566;28;20321;-75
2020/12/10 05:21:15;;;;;;;51.90;24.70;;;3.60;93.10;;;;;;4995899;28;20034;-75
2020/12/10 05:23:41;;;;;;;48.47;22.10;;;3.70;93.00;;;;;;5012098;28;20037;-75
2020/12/10 05:26:09;;;;;;;46.93;23.27;;;3.70;93.00;;;;;;5012960;28;20030;-75
2020/12/10 05:28:43;;;;;;;53.50;24.60;;;3.70;92.80;;;;;;4997242;28;20038;-75
2020/12/10 05:31:20;;;;;;;56.53;25.60;;;3.60;92.90;;;;;;5027848;28;20057;-75
2020/12/10 05:33:52;;;;;;;53.13;24.87;;;3.60;92.90;;;;;;5007050;28;20038;-73
2020/12/10 05:36:18;;;;;;;54.33;24.73;;;3.60;93.00;;;;;;5022522;28;20491;-75
2020/12/10 05:39:03;;;;;;;57.70;25.90;;;3.60;92.90;;;;;;5019465;28;20479;-75
2020/12/10 05:41:30;;;;;;;52.37;22.93;;;3.60;92.90;;;;;;5018287;28;20398;-75
2020/12/10 05:43:55;;;;;;;55.97;25.50;;;3.60;92.90;;;;;;5023340;28;20128;-75
2020/12/10 05:46:25;;;;;;;64.87;28.50;;;3.60;92.90;;;;;;5014080;28;20128;-75
2020/12/10 05:48:52;;;;;;;57.97;25.43;;;3.60;92.90;;;;;;5011624;28;20402;-76
2020/12/10 05:51:22;;;;;;;66.93;27.07;;;3.60;92.90;;;;;;5009595;28;20479;-75
2020/12/10 05:53:50;;;;;;;64.15;27.27;;;3.50;92.90;;;;;;5015477;28;20034;-76
2020/12/10 05:56:17;;;;;;;67.87;27.00;;;3.50;92.90;;;;;;5010604;28;20076;-75
2020/12/10 05:58:48;;;;;;;71.03;29.20;;;3.50;92.90;;;;;;5010246;28;20050;-75
2020/12/10 06:01:26;;;;;;;70.00;28.47;;;3.50;93.00;;;;;;5011692;28;20099;-75
2020/12/10 06:03:53;;;;;;;70.40;28.77;;;3.50;93.00;;;;;;5008172;28;20053;-75
2020/12/10 06:06:20;;;;;;;73.47;28.33;;;3.50;93.00;;;;;;5010085;28;20153;-75
2020/12/10 06:08:49;;;;;;;75.07;27.70;;;3.50;93.00;;;;;;5010030;28;20034;-76
2020/12/10 06:11:19;;;;;;;82.37;29.87;;;3.60;93.00;;;;;;5010303;28;20034;-75
2020/12/10 06:13:46;;;;;;;85.53;31.10;;;3.60;93.10;;;;;;5010416;28;20042;-75
2020/12/10 06:16:16;;;;;;;93.03;33.23;;;3.60;93.10;;;;;;5011766;28;20510;-75
2020/12/10 06:19:03;;;;;;;99.47;34.25;;;3.60;93.00;;;;;;5010667;28;20537;-75
2020/12/10 06:21:45;;;;;;;99.83;34.43;;;3.60;93.10;;;;;;5010052;28;20054;-75
2020/12/10 06:24:26;;;;;;;90.23;32.47;;;3.60;93.20;;;;;;5011277;28;20053;-75
2020/12/10 06:26:56;;;;;;;80.90;31.85;;;3.60;93.10;;;;;;5011766;28;20042;-75
2020/12/10 06:29:27;;;;;;;81.93;31.07;;;3.60;93.00;;;;;;5011950;28;20041;-75
2020/12/10 06:32:09;;;;;;;82.37;29.33;;;3.60;93.00;;;;;;5011006;28;20100;-75
2020/12/10 06:34:41;;;;;;;88.07;30.67;;;3.50;93.00;;;;;;5011835;28;20065;-75
2020/12/10 06:37:27;;;;;;;90.83;31.97;;;3.50;93.00;;;;;;5009307;28;20383;-75
2020/12/10 06:39:54;;;;;;;96.63;30.63;;;3.50;93.10;;;;;;5011317;28;20029;-75
2020/12/10 06:42:20;;;;;;;102.00;33.07;;;3.50;93.10;;;;;;5011308;28;20092;-75
2020/12/10 06:44:46;;;;;;;113.73;36.07;;;3.50;93.10;;;;;;5011535;28;20034;-75
2020/12/10 06:47:12;;;;;;;111.63;35.80;;;3.50;93.10;;;;;;5011048;28;20082;-75
2020/12/10 06:49:38;;;;;;;106.97;34.40;;;3.50;93.20;;;;;;5010524;28;20034;-75
2020/12/10 06:52:18;;;;;;;110.60;34.97;;;3.50;93.30;;;;;;5010897;28;20041;-75
2020/12/10 06:55:06;;;;;;;90.13;31.73;;;3.50;93.30;;;;;;5011361;28;20115;-75
2020/12/10 06:57:52;;;;;;;82.37;28.03;;;3.60;93.30;;;;;;4993512;28;20080;-75
2020/12/10 07:00:37;;;;;;;80.17;27.63;;;3.60;93.20;;;;;;5010900;28;20038;-75
2020/12/10 07:03:11;;;;;;;67.27;27.67;;;3.60;93.10;;;;;;5010831;28;20621;-75
2020/12/10 07:05:37;;;;;;;68.73;26.93;;;3.50;93.10;;;;;;5010943;28;20034;-75
2020/12/10 07:08:06;;;;;;;74.27;26.57;;;3.50;93.00;;;;;;5011300;28;20061;-75
2020/12/10 07:10:46;;;;;;;67.90;26.23;;;3.50;93.00;;;;;;5009707;28;20030;-75
2020/12/10 07:13:14;;;;;;;70.33;25.47;;;3.50;93.10;;;;;;4993138;28;20045;-75
2020/12/10 07:15:40;;;;;;;66.00;25.43;;;3.50;93.20;;;;;;5010688;28;20046;-75
2020/12/10 07:18:06;;;;;;;59.23;25.03;;;3.50;93.30;;;;;;5011241;28;20046;-75
2020/12/10 07:20:33;;;;;;;59.50;24.77;;;3.50;93.20;;;;;;5009927;28;20064;-75
2020/12/10 07:23:00;;;;;;;61.07;25.07;;;3.50;93.10;;;;;;5008479;28;20041;-75
2020/12/10 07:25:26;;;;;;;56.67;24.00;;;3.50;93.00;;;;;;5011184;28;20571;-75
2020/12/10 07:27:52;;;;;;;60.30;24.87;;;3.40;93.00;;;;;;5010800;28;20050;-75
2020/12/10 07:30:19;;;;;;;59.93;23.13;;;3.40;93.10;;;;;;5009970;28;20038;-75
2020/12/10 07:32:45;;;;;;;59.37;25.03;;;3.40;93.20;;;;;;5010232;28;20454;-75
2020/12/10 07:35:12;;;;;;;58.93;25.47;;;3.40;93.10;;;;;;5010905;28;20042;-75
2020/12/10 07:37:39;;;;;;;60.37;27.40;;;3.40;93.20;;;;;;5011631;28;20495;-68
2020/12/10 07:40:12;;;;;;;57.07;25.07;;;3.30;93.10;;;;;;5009446;28;20065;-68
2020/12/10 07:42:38;;;;;;;63.53;26.70;;;3.30;93.10;;;;;;5010549;28;20041;-68
2020/12/10 07:45:14;;;;;;;58.27;25.17;;;3.30;93.20;;;;;;5009007;28;20042;-68
2020/12/10 07:47:40;;;;;;;63.73;26.17;;;3.30;93.20;;;;;;5008891;28;20029;-68
2020/12/10 07:50:21;;;;;;;59.43;25.57;;;3.30;93.40;;;;;;5007107;28;20081;-68
2020/12/10 07:52:49;;;;;;;71.22;26.90;;;3.30;93.10;;;;;;5009073;28;20506;-68
2020/12/10 07:55:28;;;;;;;59.10;25.27;;;3.30;93.20;;;;;;5010291;28;20124;-68
2020/12/10 07:57:59;;;;;;;68.43;27.17;;;3.30;93.20;;;;;;4993394;28;20384;-68
2020/12/10 08:00:29;;;;;;;68.27;25.53;;;3.30;93.10;;;;;;5010306;28;20034;-68
2020/12/10 08:03:17;;;;;;;75.60;28.17;;;3.30;93.10;;;;;;5010371;28;20380;-68
2020/12/10 08:05:45;;;;;;;72.33;27.83;;;3.30;93.10;;;;;;5010571;28;20038;-68
2020/12/10 08:08:11;;;;;;;77.47;28.93;;;3.30;93.10;;;;;;5009590;28;20513;-68
2020/12/10 08:10:39;;;;;;;66.57;27.93;;;3.20;93.00;;;;;;5010260;28;20045;-68
2020/12/10 08:13:12;;;;;;;79.10;30.23;;;3.20;93.10;;;;;;5010085;28;20069;-68
2020/12/10 08:15:39;;;;;;;83.17;29.80;;;3.30;93.20;;;;;;5010095;28;20046;-68
2020/12/10 08:18:06;;;;;;;76.63;30.23;;;3.20;93.20;;;;;;5010964;28;20037;-68
2020/12/10 08:20:39;;;;;;;77.07;30.33;;;3.30;93.30;;;;;;4993028;28;20049;-68
2020/12/10 08:23:05;;;;;;;77.80;29.67;;;3.30;93.20;;;;;;5008603;28;20034;-68
2020/12/10 08:25:31;;;;;;;76.40;28.10;;;3.30;93.10;;;;;;4992897;28;20053;-69
2020/12/10 08:27:57;;;;;;;77.70;29.07;;;3.30;93.10;;;;;;5010125;28;20054;-68
2020/12/10 08:30:24;;;;;;;90.47;32.10;;;3.30;93.10;;;;;;5011522;28;20034;-68
2020/12/10 08:32:57;;;;;;;85.97;32.07;;;3.20;93.10;;;;;;5025796;28;20121;-69
2020/12/10 08:35:23;;;;;;;85.37;29.90;;;3.30;93.20;;;;;;5027141;28;20062;-68
2020/12/10 08:37:48;;;;;;;85.77;30.57;;;3.30;93.20;;;;;;5005387;28;20072;-68
2020/12/10 08:40:24;;;;;;;86.30;31.97;;;3.30;93.20;;;;;;5052723;28;20038;-68
2020/12/10 08:42:50;;;;;;;80.40;30.93;;;3.30;93.30;;;;;;5024293;28;20046;-68
2020/12/10 08:45:29;;;;;;;89.23;30.80;;;3.30;93.20;;;;;;5022009;28;20386;-68
2020/12/10 08:47:58;;;;;;;87.13;32.43;;;3.30;93.20;;;;;;5014130;28;20057;-68
2020/12/10 08:50:27;;;;;;;90.53;33.47;;;3.30;93.20;;;;;;5045864;28;20026;-68
2020/12/10 08:52:59;;;;;;;78.37;30.00;;;3.30;93.20;;;;;;5013843;28;20129;-68
2020/12/10 08:55:43;;;;;;;93.80;32.33;;;3.30;93.20;;;;;;5013388;28;20026;-68
2020/12/10 08:58:19;;;;;;;94.57;32.90;;;3.30;93.20;;;;;;5044552;28;20034;-69
2020/12/10 09:00:47;;;;;;;87.10;30.83;;;3.30;93.30;;;;;;5013317;28;20046;-69
2020/12/10 09:03:13;;;;;;;86.20;31.80;;;3.30;93.30;;;;;;5019569;28;20040;-68
2020/12/10 09:05:39;;;;;;;81.50;29.90;;;3.30;93.20;;;;;;5021858;28;20034;-68
2020/12/10 09:08:05;;;;;;;79.30;26.80;;;3.30;93.10;;;;;;5027227;28;20438;-68
2020/12/10 09:10:31;;;;;;;94.60;31.77;;;3.30;93.10;;;;;;5016104;28;20092;-68
2020/12/10 09:12:59;;;;;;;84.63;30.70;;;3.30;93.10;;;;;;5026235;28;20038;-68
2020/12/10 09:15:25;;;;;;;98.57;34.30;;;3.30;93.00;;;;;;5020945;28;20064;-68
2020/12/10 09:17:51;;;;;;;97.03;33.20;;;3.30;93.20;;;;;;5020792;28;20041;-68
2020/12/10 09:20:18;;;;;;;81.17;29.73;;;3.30;93.30;;;;;;5028727;28;20056;-68
2020/12/10 09:22:44;;;;;;;81.07;30.07;;;3.40;93.50;;;;;;5015645;28;20433;-68
2020/12/10 09:25:10;;;;;;;88.10;31.37;;;3.40;93.30;;;;;;5026258;28;20046;-68
2020/12/10 09:27:36;;;;;;;79.00;29.73;;;3.50;93.20;;;;;;5020431;28;20088;-68
2020/12/10 09:30:05;;;;;;;77.87;29.20;;;3.40;93.10;;;;;;5028912;28;20458;-68
2020/12/10 09:32:33;;;;;;;80.37;30.63;;;3.40;93.10;;;;;;5014342;28;20091;-68
2020/12/10 09:35:01;;;;;;;73.90;28.33;;;3.40;93.10;;;;;;5025572;28;20035;-67
2020/12/10 09:37:27;;;;;;;72.60;27.97;;;3.40;93.10;;;;;;5022537;28;20526;-68
2020/12/10 09:39:52;;;;;;;72.33;27.83;;;3.40;93.10;;;;;;5018498;28;20125;-68
2020/12/10 09:42:18;;;;;;;62.90;25.07;;;3.40;93.20;;;;;;5018656;28;20430;-68
2020/12/10 09:44:44;;;;;;;69.73;28.40;;;3.40;93.20;;;;;;5015758;28;20041;-68
2020/12/10 09:47:11;;;;;;;59.03;23.57;;;3.40;93.10;;;;;;5024801;28;20041;-68
2020/12/10 09:49:37;;;;;;;72.63;29.90;;;3.40;93.10;;;;;;5021890;28;20060;-68
2020/12/10 09:52:04;;;;;;;69.57;29.47;;;3.40;93.10;;;;;;5016959;28;20123;-68
2020/12/10 09:59:27;;;;;;;74.80;30.73;;;3.50;93.10;;;;;;5022475;28;20030;-68
2020/12/10 10:01:53;;;;;;;73.33;29.57;;;3.50;93.20;;;;;;5024469;28;20411;-68
2020/12/10 10:04:18;;;;;;;73.90;31.23;;;3.60;93.10;;;;;;5015127;28;20113;-68
2020/12/10 10:06:47;;;;;;;77.40;31.80;;;3.60;92.90;;;;;;5028326;28;20030;-68
2020/12/10 10:09:13;;;;;;;76.90;31.17;;;3.50;92.80;;;;;;5019372;28;20040;-67
2020/12/10 10:11:39;;;;;;;75.60;32.23;;;3.50;92.80;;;;;;5022883;28;20659;-68
2020/12/10 10:14:05;;;;;;;73.20;30.43;;;3.50;93.00;;;;;;5029053;28;20037;-68
2020/12/10 10:16:32;;;;;;;80.10;30.93;;;3.50;93.00;;;;;;5028595;28;20324;-67
2020/12/10 10:18:59;;;;;;;81.93;31.37;;;3.50;92.80;;;;;;5023114;28;20033;-67
2020/12/10 10:21:29;;;;;;;77.43;31.90;;;3.50;92.80;;;;;;5021133;28;20046;-68
2020/12/10 10:23:55;;;;;;;84.60;32.67;;;3.40;92.80;;;;;;5010639;28;20495;-67
2020/12/10 10:26:22;;;;;;;81.13;32.57;;;3.50;92.90;;;;;;5013298;28;20092;-67
2020/12/10 10:28:50;;;;;;;88.87;32.37;;;3.40;93.30;;;;;;5012003;28;20030;-67
2020/12/10 10:31:16;;;;;;;76.57;31.40;;;3.50;93.30;;;;;;5012289;28;20034;-67
2020/12/10 10:33:42;;;;;;;76.33;30.13;;;3.50;93.00;;;;;;5011227;28;20418;-67
2020/12/10 10:36:08;;;;;;;79.10;32.27;;;3.60;93.00;;;;;;5010883;28;20049;-67
2020/12/10 10:38:34;;;;;;;87.93;33.73;;;3.60;92.80;;;;;;5025820;28;20049;-67
2020/12/10 10:40:59;;;;;;;87.87;34.67;;;3.50;92.70;;;;;;5013353;28;20033;-67
2020/12/10 10:43:25;;;;;;;84.23;33.43;;;3.60;93.00;;;;;;5027286;28;20033;-67
2020/12/10 10:45:51;;;;;;;85.23;32.90;;;3.60;92.90;;;;;;5016572;28;20045;-67
2020/12/10 10:48:17;;;;;;;86.67;34.43;;;3.70;93.00;;;;;;5020695;28;20030;-67
2020/12/10 10:50:43;;;;;;;76.23;32.43;;;3.70;93.00;;;;;;5025181;28;20037;-67
2020/12/10 10:53:09;;;;;;;82.53;32.83;;;3.80;92.90;;;;;;5013668;28;20030;-68
2020/12/10 10:55:35;;;;;;;83.37;32.80;;;3.80;92.90;;;;;;5026318;28;20767;-67
2020/12/10 10:58:00;;;;;;;84.43;32.83;;;3.80;92.90;;;;;;5018457;28;20129;-67
2020/12/10 11:00:26;;;;;;;75.33;32.37;;;3.90;92.90;;;;;;5001296;28;20491;-67
2020/12/10 11:02:52;;;;;;;75.07;31.90;;;3.90;92.80;;;;;;5024324;28;20041;-67
2020/12/10 11:05:18;;;;;;;85.37;31.97;;;3.90;92.70;;;;;;5014010;28;20067;-67
2020/12/10 11:07:44;;;;;;;80.73;32.77;;;4.00;92.60;;;;;;5023727;28;20675;-67
2020/12/10 11:10:11;;;;;;;81.87;32.77;;;3.90;92.60;;;;;;5013696;28;20133;-67
2020/12/10 11:12:36;;;;;;;86.97;34.33;;;4.00;92.60;;;;;;5008309;28;20033;-68
2020/12/10 11:15:03;;;;;;;82.43;32.37;;;4.00;92.50;;;;;;5017381;28;20109;-67
2020/12/10 11:17:29;;;;;;;75.93;29.67;;;4.00;92.70;;;;;;5018999;28;20511;-67
2020/12/10 11:19:55;;;;;;;79.50;32.23;;;4.00;92.60;;;;;;5025978;28;20108;-67
2020/12/10 11:22:21;;;;;;;76.30;32.77;;;4.00;92.30;;;;;;5013268;28;20513;-67
2020/12/10 11:24:47;;;;;;;88.27;34.70;;;4.00;92.40;;;;;;5024867;28;20037;-67
2020/12/10 11:27:12;;;;;;;82.03;32.80;;;4.00;92.40;;;;;;5020127;28;20065;-67
2020/12/10 11:29:38;;;;;;;88.10;34.67;;;3.90;92.30;;;;;;5012489;28;20068;-67
2020/12/10 11:32:04;;;;;;;97.07;35.67;;;3.90;92.30;;;;;;5017550;28;20046;-67
2020/12/10 11:34:30;;;;;;;92.63;32.43;;;3.90;92.30;;;;;;5028087;28;20034;-67
2020/12/10 11:36:56;;;;;;;96.90;34.77;;;3.90;92.30;;;;;;5024685;28;20410;-68
2020/12/10 11:39:22;;;;;;;100.60;36.53;;;3.80;92.10;;;;;;5035223;28;20061;-66
2020/12/10 11:41:48;;;;;;;103.57;37.10;;;3.80;92.40;;;;;;5016435;28;20065;-67
2020/12/10 11:44:13;;;;;;;98.40;37.33;;;3.80;92.20;;;;;;5008127;28;20038;-67
2020/12/10 11:46:39;;;;;;;99.67;36.23;;;3.80;92.30;;;;;;5008313;28;20030;-67
2020/12/10 11:49:05;;;;;;;102.20;38.80;;;3.80;92.40;;;;;;5011643;28;20033;-67
2020/12/10 11:51:32;;;;;;;107.90;37.67;;;3.80;92.70;;;;;;5014646;28;20399;-67
2020/12/10 11:53:59;;;;;;;86.63;34.93;;;3.80;92.40;;;;;;5027719;28;20088;-67
2020/12/10 11:56:25;;;;;;;107.30;37.50;;;3.80;92.40;;;;;;5017056;28;20394;-67
2020/12/10 11:58:51;;;;;;;98.47;37.83;;;3.80;92.30;;;;;;5028778;28;20040;-68
2020/12/10 12:01:17;;;;;;;88.70;32.43;;;3.90;92.40;;;;;;5029221;28;20042;-67
2020/12/10 12:03:43;;;;;;;96.67;36.63;;;3.90;92.30;;;;;;5029993;28;20037;-67
2020/12/10 12:06:09;;;;;;;92.90;35.27;;;3.90;92.20;;;;;;5029001;28;20095;-67
2020/12/10 12:08:35;;;;;;;92.83;35.80;;;3.80;92.20;;;;;;5031082;28;20037;-67
2020/12/10 12:11:02;;;;;;;94.53;33.00;;;3.90;92.20;;;;;;5016067;28;20045;-67
2020/12/10 12:13:29;;;;;;;92.50;33.80;;;3.80;92.30;;;;;;5032498;28;20037;-67
2020/12/10 12:15:55;;;;;;;85.97;32.47;;;3.80;92.30;;;;;;5034118;28;20563;-67
2020/12/10 12:18:21;;;;;;;88.03;31.87;;;3.90;92.30;;;;;;5033970;28;20105;-67
2020/12/10 12:20:47;;;;;;;84.83;33.03;;;3.90;92.20;;;;;;5033011;28;20037;-67
2020/12/10 12:23:13;;;;;;;80.30;31.90;;;3.90;92.10;;;;;;5018390;28;20100;-67
2020/12/10 12:25:39;;;;;;;71.00;29.60;;;3.90;92.20;;;;;;5012657;28;20060;-68
2020/12/10 12:28:05;;;;;;;73.53;31.63;;;3.90;92.00;;;;;;5033285;28;20040;-68
2020/12/10 12:30:34;;;;;;;76.50;31.57;;;3.90;92.10;;;;;;5015995;28;20037;-67
2020/12/10 12:33:03;;;;;;;74.50;30.57;;;3.90;92.20;;;;;;5010302;28;20042;-68
2020/12/10 12:35:30;;;;;;;66.03;28.53;;;4.00;92.20;;;;;;5009432;28;20052;-68
2020/12/10 12:37:55;;;;;;;71.60;29.87;;;4.00;92.10;;;;;;5015080;28;20044;-67
2020/12/10 12:40:21;;;;;;;68.73;28.90;;;3.90;91.90;;;;;;5028529;28;20037;-67
2020/12/10 12:42:47;;;;;;;70.67;28.43;;;4.00;91.90;;;;;;5032852;28;20037;-67